Aérodrome :
LOGIN :

S'inscrire | Disclaimer

   EN    FR    IT 

 










Légende :    VFR   VFR Marginal   IFR   IFR Intensif   IFR Très Intensif
Visi : 
Plafond : 
>= 8 km
>= 3000ft
5 à 8 km
1000 à 3000 ft
1500m à 5 km
500 à 1000 ft
800 à 1500m
200 à 500 ft
< 800m
< 200 ft
Symboles :   Orages  Brouillard  Fortes neiges  Fortes précipitations  Vent > 20 kt
SIGMETs :   Divers  Orages  Givrage  Turbulence  Onde Orograph.  Cendres Volcan.







- Altitude de l'aérodrome : -15 ft
- Code IATA : RTM


EHRD - Rotterdam Zestienhoven

METARs EXPIRÉS :
  • 241425Z AUTO 25014KT 220V290 9999 SCT015 BKN019 OVC028 18/16 Q1013 NOSIG
  • 241355Z AUTO 24012KT 210V280 9999 -RA BKN015 BKN020 OVC024 19/16 Q1014 NOSIG
  • 241325Z AUTO 25013KT 210V270 6000 DZRA FEW014 SCT017 BKN021 18/16 Q1014 NOSIG
  • 241255Z AUTO 24012KT 210V270 9999 FEW016 BKN028 OVC032 19/16 Q1014 NOSIG
  • 241225Z AUTO 25013KT 9999 FEW016 BKN028 OVC032 19/15 Q1014 NOSIG
  • 241155Z AUTO 25014KT 220V290 9999 FEW017 SCT026 BKN030 19/15 Q1014 NOSIG

Prévision TAF périmée.
Pas de NOTAMs connus pour ce terrain.



MET'MAP, la Météo Aéronautique d'un coup d'oeil ! - Copyright ORBIFLY Décembre 2007 - Disclaimer

ORBIFLY MET'MAP TEAM :

Programmation & Développement : Alexandra Zaïnal
Conception & Développement : Baudouin d'Aumeries
Co-Programmation & Développement : Marc-Olivier Méhu
Soutien technique & logistique : Manuel Goepfert

Contact : metmap@orbifly.com




SOURCES & CREDITS :

   NOAA